sensor_id;sensor_type;location;lat;lon;timestamp;temperature;humidity
7998;DHT22;4044;49.814;7.828;2023-05-14T00:01:00;10.00;97.00
7998;DHT22;4044;49.814;7.828;2023-05-14T00:03:26;10.00;97.10
7998;DHT22;4044;49.814;7.828;2023-05-14T00:05:51;9.90;97.30
7998;DHT22;4044;49.814;7.828;2023-05-14T00:08:17;9.90;97.50
7998;DHT22;4044;49.814;7.828;2023-05-14T00:10:42;9.80;97.40
7998;DHT22;4044;49.814;7.828;2023-05-14T00:13:08;9.80;97.60
7998;DHT22;4044;49.814;7.828;2023-05-14T00:15:33;9.70;98.70
7998;DHT22;4044;49.814;7.828;2023-05-14T00:17:59;9.70;98.90
7998;DHT22;4044;49.814;7.828;2023-05-14T00:20:24;9.70;98.50
7998;DHT22;4044;49.814;7.828;2023-05-14T00:22:50;9.70;98.60
7998;DHT22;4044;49.814;7.828;2023-05-14T00:25:15;9.60;98.40
7998;DHT22;4044;49.814;7.828;2023-05-14T00:27:41;9.60;98.30
7998;DHT22;4044;49.814;7.828;2023-05-14T00:30:07;9.60;98.90
7998;DHT22;4044;49.814;7.828;2023-05-14T00:32:32;9.60;98.50
7998;DHT22;4044;49.814;7.828;2023-05-14T00:34:58;9.50;98.10
7998;DHT22;4044;49.814;7.828;2023-05-14T00:37:24;9.50;97.40
7998;DHT22;4044;49.814;7.828;2023-05-14T00:39:49;9.50;97.90
7998;DHT22;4044;49.814;7.828;2023-05-14T00:42:15;9.40;98.00
7998;DHT22;4044;49.814;7.828;2023-05-14T00:44:40;9.40;98.70
7998;DHT22;4044;49.814;7.828;2023-05-14T00:47:06;9.30;98.60
7998;DHT22;4044;49.814;7.828;2023-05-14T00:49:32;9.30;98.90
7998;DHT22;4044;49.814;7.828;2023-05-14T00:51:58;9.30;98.40
7998;DHT22;4044;49.814;7.828;2023-05-14T00:54:24;9.30;98.20
7998;DHT22;4044;49.814;7.828;2023-05-14T00:56:50;9.30;98.30
7998;DHT22;4044;49.814;7.828;2023-05-14T00:59:17;9.30;98.20
7998;DHT22;4044;49.814;7.828;2023-05-14T01:01:42;9.30;97.70
7998;DHT22;4044;49.814;7.828;2023-05-14T01:04:09;9.30;98.30
7998;DHT22;4044;49.814;7.828;2023-05-14T01:09:39;9.40;98.10
7998;DHT22;4044;49.814;7.828;2023-05-14T01:12:42;9.40;98.20
7998;DHT22;4044;49.814;7.828;2023-05-14T01:17:49;9.50;99.90
7998;DHT22;4044;49.814;7.828;2023-05-14T01:20:16;9.50;99.60
7998;DHT22;4044;49.814;7.828;2023-05-14T01:22:41;9.60;99.90
7998;DHT22;4044;49.814;7.828;2023-05-14T01:25:07;9.60;99.50
7998;DHT22;4044;49.814;7.828;2023-05-14T01:30:36;9.70;98.70
7998;DHT22;4044;49.814;7.828;2023-05-14T01:33:10;9.60;99.30
7998;DHT22;4044;49.814;7.828;2023-05-14T01:35:36;9.50;99.50
7998;DHT22;4044;49.814;7.828;2023-05-14T01:38:10;9.40;99.90
7998;DHT22;4044;49.814;7.828;2023-05-14T01:40:37;9.30;99.90
7998;DHT22;4044;49.814;7.828;2023-05-14T01:43:03;9.30;99.90
7998;DHT22;4044;49.814;7.828;2023-05-14T01:45:30;9.50;99.60
7998;DHT22;4044;49.814;7.828;2023-05-14T01:47:57;9.60;99.10
7998;DHT22;4044;49.814;7.828;2023-05-14T01:50:22;9.60;99.10
7998;DHT22;4044;49.814;7.828;2023-05-14T01:52:48;9.60;98.90
7998;DHT22;4044;49.814;7.828;2023-05-14T01:55:15;9.60;99.00
7998;DHT22;4044;49.814;7.828;2023-05-14T01:57:42;9.50;98.50
7998;DHT22;4044;49.814;7.828;2023-05-14T02:00:08;9.40;98.40
7998;DHT22;4044;49.814;7.828;2023-05-14T02:02:33;9.40;98.40
7998;DHT22;4044;49.814;7.828;2023-05-14T02:04:59;9.30;98.20
7998;DHT22;4044;49.814;7.828;2023-05-14T02:07:24;9.20;98.80
7998;DHT22;4044;49.814;7.828;2023-05-14T02:09:50;9.20;99.10
7998;DHT22;4044;49.814;7.828;2023-05-14T02:12:15;9.10;99.10
7998;DHT22;4044;49.814;7.828;2023-05-14T02:14:41;9.00;99.50
7998;DHT22;4044;49.814;7.828;2023-05-14T02:17:06;8.90;99.30
7998;DHT22;4044;49.814;7.828;2023-05-14T02:19:32;8.90;98.90
7998;DHT22;4044;49.814;7.828;2023-05-14T02:21:58;8.90;98.70
7998;DHT22;4044;49.814;7.828;2023-05-14T02:24:25;8.80;99.00
7998;DHT22;4044;49.814;7.828;2023-05-14T02:26:51;8.80;98.90
7998;DHT22;4044;49.814;7.828;2023-05-14T02:29:16;8.70;99.60
7998;DHT22;4044;49.814;7.828;2023-05-14T02:31:41;8.70;99.90
7998;DHT22;4044;49.814;7.828;2023-05-14T02:34:08;8.70;99.80
7998;DHT22;4044;49.814;7.828;2023-05-14T02:36:34;8.70;99.10
7998;DHT22;4044;49.814;7.828;2023-05-14T02:38:59;8.60;98.60
7998;DHT22;4044;49.814;7.828;2023-05-14T02:41:25;8.60;99.80
7998;DHT22;4044;49.814;7.828;2023-05-14T02:43:52;8.40;99.90
7998;DHT22;4044;49.814;7.828;2023-05-14T02:46:17;8.40;99.90
7998;DHT22;4044;49.814;7.828;2023-05-14T02:48:43;8.40;99.90
7998;DHT22;4044;49.814;7.828;2023-05-14T02:51:09;8.40;99.90
7998;DHT22;4044;49.814;7.828;2023-05-14T02:53:34;8.40;99.60
7998;DHT22;4044;49.814;7.828;2023-05-14T02:56:00;8.40;99.40
7998;DHT22;4044;49.814;7.828;2023-05-14T02:58:25;8.40;99.80
7998;DHT22;4044;49.814;7.828;2023-05-14T03:00:51;8.40;99.60
7998;DHT22;4044;49.814;7.828;2023-05-14T03:03:18;8.40;99.30
7998;DHT22;4044;49.814;7.828;2023-05-14T03:05:43;8.30;99.40
7998;DHT22;4044;49.814;7.828;2023-05-14T03:08:09;8.30;98.90
7998;DHT22;4044;49.814;7.828;2023-05-14T03:10:35;8.20;99.70
7998;DHT22;4044;49.814;7.828;2023-05-14T03:13:00;8.10;99.60
7998;DHT22;4044;49.814;7.828;2023-05-14T03:15:26;8.10;99.50
7998;DHT22;4044;49.814;7.828;2023-05-14T03:17:51;8.10;99.30
7998;DHT22;4044;49.814;7.828;2023-05-14T03:20:17;8.10;99.30
7998;DHT22;4044;49.814;7.828;2023-05-14T03:22:42;8.00;99.90
7998;DHT22;4044;49.814;7.828;2023-05-14T03:25:08;8.00;99.90
7998;DHT22;4044;49.814;7.828;2023-05-14T03:27:34;7.90;99.90
7998;DHT22;4044;49.814;7.828;2023-05-14T03:29:59;7.90;99.90
7998;DHT22;4044;49.814;7.828;2023-05-14T03:32:25;7.90;99.40
7998;DHT22;4044;49.814;7.828;2023-05-14T03:34:50;7.90;99.60
7998;DHT22;4044;49.814;7.828;2023-05-14T03:37:16;7.90;99.50
7998;DHT22;4044;49.814;7.828;2023-05-14T03:39:42;7.90;99.40
7998;DHT22;4044;49.814;7.828;2023-05-14T03:42:07;7.80;99.90
7998;DHT22;4044;49.814;7.828;2023-05-14T03:44:33;7.80;99.90
7998;DHT22;4044;49.814;7.828;2023-05-14T03:46:58;7.80;99.80
7998;DHT22;4044;49.814;7.828;2023-05-14T03:49:24;7.80;99.70
7998;DHT22;4044;49.814;7.828;2023-05-14T03:51:49;7.80;99.90
7998;DHT22;4044;49.814;7.828;2023-05-14T03:54:15;7.80;99.90
7998;DHT22;4044;49.814;7.828;2023-05-14T03:56:40;7.80;99.90
7998;DHT22;4044;49.814;7.828;2023-05-14T03:59:06;7.90;99.90
7998;DHT22;4044;49.814;7.828;2023-05-14T04:01:31;7.90;99.90
7998;DHT22;4044;49.814;7.828;2023-05-14T04:03:57;7.90;99.90
7998;DHT22;4044;49.814;7.828;2023-05-14T04:06:22;7.90;99.90
7998;DHT22;4044;49.814;7.828;2023-05-14T04:08:48;7.90;99.90
7998;DHT22;4044;49.814;7.828;2023-05-14T04:11:13;7.90;99.70
7998;DHT22;4044;49.814;7.828;2023-05-14T04:13:39;7.90;99.60
7998;DHT22;4044;49.814;7.828;2023-05-14T04:16:05;7.80;99.90
7998;DHT22;4044;49.814;7.828;2023-05-14T04:18:30;7.90;99.90
7998;DHT22;4044;49.814;7.828;2023-05-14T04:20:59;7.90;99.60
7998;DHT22;4044;49.814;7.828;2023-05-14T04:23:25;7.90;99.70
7998;DHT22;4044;49.814;7.828;2023-05-14T04:25:50;7.90;99.90
7998;DHT22;4044;49.814;7.828;2023-05-14T04:28:16;7.90;99.90
7998;DHT22;4044;49.814;7.828;2023-05-14T04:30:41;7.90;99.70
7998;DHT22;4044;49.814;7.828;2023-05-14T04:33:07;7.90;99.80
7998;DHT22;4044;49.814;7.828;2023-05-14T04:35:32;7.90;99.90
7998;DHT22;4044;49.814;7.828;2023-05-14T04:37:58;7.90;99.80
7998;DHT22;4044;49.814;7.828;2023-05-14T04:40:24;7.90;99.90
7998;DHT22;4044;49.814;7.828;2023-05-14T04:42:49;7.90;99.90
7998;DHT22;4044;49.814;7.828;2023-05-14T04:45:15;7.90;99.90
7998;DHT22;4044;49.814;7.828;2023-05-14T04:47:41;7.90;99.90
7998;DHT22;4044;49.814;7.828;2023-05-14T04:50:07;8.00;99.90
7998;DHT22;4044;49.814;7.828;2023-05-14T04:52:34;8.10;99.90
7998;DHT22;4044;49.814;7.828;2023-05-14T04:54:59;8.20;99.90
7998;DHT22;4044;49.814;7.828;2023-05-14T04:57:25;8.20;99.90
7998;DHT22;4044;49.814;7.828;2023-05-14T04:59:51;8.20;99.90
7998;DHT22;4044;49.814;7.828;2023-05-14T05:02:16;8.20;99.90
7998;DHT22;4044;49.814;7.828;2023-05-14T05:04:42;8.30;99.90
7998;DHT22;4044;49.814;7.828;2023-05-14T05:07:07;8.50;99.90
7998;DHT22;4044;49.814;7.828;2023-05-14T05:09:33;8.60;99.90
7998;DHT22;4044;49.814;7.828;2023-05-14T05:11:58;8.70;99.90
7998;DHT22;4044;49.814;7.828;2023-05-14T05:14:25;8.80;99.90
7998;DHT22;4044;49.814;7.828;2023-05-14T05:16:51;8.90;99.90
7998;DHT22;4044;49.814;7.828;2023-05-14T05:19:17;8.90;99.90
7998;DHT22;4044;49.814;7.828;2023-05-14T05:21:42;9.10;99.90
7998;DHT22;4044;49.814;7.828;2023-05-14T05:24:08;9.30;99.90
7998;DHT22;4044;49.814;7.828;2023-05-14T05:26:33;9.40;99.90
7998;DHT22;4044;49.814;7.828;2023-05-14T05:29:02;9.40;99.90
7998;DHT22;4044;49.814;7.828;2023-05-14T05:31:28;9.50;99.90
7998;DHT22;4044;49.814;7.828;2023-05-14T05:33:53;9.50;99.90
7998;DHT22;4044;49.814;7.828;2023-05-14T05:36:19;9.60;99.90
7998;DHT22;4044;49.814;7.828;2023-05-14T05:38:44;9.60;99.90
7998;DHT22;4044;49.814;7.828;2023-05-14T05:41:10;9.70;99.90
7998;DHT22;4044;49.814;7.828;2023-05-14T05:43:35;9.80;99.90
7998;DHT22;4044;49.814;7.828;2023-05-14T05:46:01;9.90;99.90
7998;DHT22;4044;49.814;7.828;2023-05-14T05:48:26;9.90;99.90
7998;DHT22;4044;49.814;7.828;2023-05-14T05:50:52;10.00;99.90
7998;DHT22;4044;49.814;7.828;2023-05-14T05:53:18;10.00;99.90
7998;DHT22;4044;49.814;7.828;2023-05-14T05:55:44;10.00;99.90
7998;DHT22;4044;49.814;7.828;2023-05-14T05:58:09;10.00;99.90
7998;DHT22;4044;49.814;7.828;2023-05-14T06:00:35;10.00;99.90
7998;DHT22;4044;49.814;7.828;2023-05-14T06:03:01;10.10;99.90
7998;DHT22;4044;49.814;7.828;2023-05-14T06:05:26;10.10;99.90
7998;DHT22;4044;49.814;7.828;2023-05-14T06:07:52;10.20;99.90
7998;DHT22;4044;49.814;7.828;2023-05-14T06:10:18;10.30;99.90
7998;DHT22;4044;49.814;7.828;2023-05-14T06:12:44;10.40;99.90
7998;DHT22;4044;49.814;7.828;2023-05-14T06:15:09;10.40;99.90
7998;DHT22;4044;49.814;7.828;2023-05-14T06:17:36;10.50;99.90
7998;DHT22;4044;49.814;7.828;2023-05-14T06:20:02;10.60;99.90
7998;DHT22;4044;49.814;7.828;2023-05-14T06:22:29;10.70;99.90
7998;DHT22;4044;49.814;7.828;2023-05-14T06:24:55;10.80;99.90
7998;DHT22;4044;49.814;7.828;2023-05-14T06:27:20;10.90;99.90
7998;DHT22;4044;49.814;7.828;2023-05-14T06:29:46;11.00;99.90
7998;DHT22;4044;49.814;7.828;2023-05-14T06:32:11;11.10;99.90
7998;DHT22;4044;49.814;7.828;2023-05-14T06:34:42;11.20;99.90
7998;DHT22;4044;49.814;7.828;2023-05-14T06:37:08;11.30;99.90
7998;DHT22;4044;49.814;7.828;2023-05-14T06:39:36;11.40;99.90
7998;DHT22;4044;49.814;7.828;2023-05-14T06:42:02;11.50;99.90
7998;DHT22;4044;49.814;7.828;2023-05-14T06:44:28;11.60;99.90
7998;DHT22;4044;49.814;7.828;2023-05-14T06:46:53;11.70;99.90
7998;DHT22;4044;49.814;7.828;2023-05-14T06:49:19;11.80;99.90
7998;DHT22;4044;49.814;7.828;2023-05-14T06:51:45;11.90;99.90
7998;DHT22;4044;49.814;7.828;2023-05-14T06:54:11;12.10;99.90
7998;DHT22;4044;49.814;7.828;2023-05-14T06:56:36;12.20;99.90
7998;DHT22;4044;49.814;7.828;2023-05-14T06:59:02;12.30;99.90
7998;DHT22;4044;49.814;7.828;2023-05-14T07:01:27;12.50;99.90
7998;DHT22;4044;49.814;7.828;2023-05-14T07:03:53;12.70;99.90
7998;DHT22;4044;49.814;7.828;2023-05-14T07:06:18;12.90;99.90
7998;DHT22;4044;49.814;7.828;2023-05-14T07:08:44;13.10;99.90
7998;DHT22;4044;49.814;7.828;2023-05-14T07:11:10;13.30;99.90
7998;DHT22;4044;49.814;7.828;2023-05-14T07:13:36;13.40;99.40
7998;DHT22;4044;49.814;7.828;2023-05-14T07:16:01;13.50;98.90
7998;DHT22;4044;49.814;7.828;2023-05-14T07:18:27;13.60;99.10
7998;DHT22;4044;49.814;7.828;2023-05-14T07:20:53;13.80;99.20
7998;DHT22;4044;49.814;7.828;2023-05-14T07:23:18;13.90;99.00
7998;DHT22;4044;49.814;7.828;2023-05-14T07:25:43;14.00;98.20
7998;DHT22;4044;49.814;7.828;2023-05-14T07:28:09;14.10;98.10
7998;DHT22;4044;49.814;7.828;2023-05-14T07:30:35;14.20;97.50
7998;DHT22;4044;49.814;7.828;2023-05-14T07:33:00;14.30;96.60
7998;DHT22;4044;49.814;7.828;2023-05-14T07:35:26;14.40;96.80
7998;DHT22;4044;49.814;7.828;2023-05-14T07:37:51;14.50;96.30
7998;DHT22;4044;49.814;7.828;2023-05-14T07:40:17;14.60;96.00
7998;DHT22;4044;49.814;7.828;2023-05-14T07:42:42;14.70;95.90
7998;DHT22;4044;49.814;7.828;2023-05-14T07:45:08;14.80;96.10
7998;DHT22;4044;49.814;7.828;2023-05-14T07:47:34;14.70;94.90
7998;DHT22;4044;49.814;7.828;2023-05-14T07:49:59;14.80;95.40
7998;DHT22;4044;49.814;7.828;2023-05-14T07:52:25;14.90;95.40
7998;DHT22;4044;49.814;7.828;2023-05-14T07:54:51;15.20;95.20
7998;DHT22;4044;49.814;7.828;2023-05-14T07:57:17;15.90;95.30
7998;DHT22;4044;49.814;7.828;2023-05-14T07:59:43;16.20;94.30
7998;DHT22;4044;49.814;7.828;2023-05-14T08:02:08;16.40;93.20
7998;DHT22;4044;49.814;7.828;2023-05-14T08:04:37;16.50;93.70
7998;DHT22;4044;49.814;7.828;2023-05-14T08:07:04;16.40;92.50
7998;DHT22;4044;49.814;7.828;2023-05-14T08:09:29;16.40;93.00
7998;DHT22;4044;49.814;7.828;2023-05-14T08:11:55;16.50;93.10
7998;DHT22;4044;49.814;7.828;2023-05-14T08:14:20;16.60;93.10
7998;DHT22;4044;49.814;7.828;2023-05-14T08:16:46;16.70;93.30
7998;DHT22;4044;49.814;7.828;2023-05-14T08:19:12;16.80;93.10
7998;DHT22;4044;49.814;7.828;2023-05-14T08:21:37;16.90;92.60
7998;DHT22;4044;49.814;7.828;2023-05-14T08:24:03;16.70;91.60
7998;DHT22;4044;49.814;7.828;2023-05-14T08:26:29;16.70;92.50
7998;DHT22;4044;49.814;7.828;2023-05-14T08:28:54;16.60;92.50
7998;DHT22;4044;49.814;7.828;2023-05-14T08:31:20;16.70;92.50
7998;DHT22;4044;49.814;7.828;2023-05-14T08:33:45;16.90;92.90
7998;DHT22;4044;49.814;7.828;2023-05-14T08:36:11;17.10;92.80
7998;DHT22;4044;49.814;7.828;2023-05-14T08:38:36;17.20;92.30
7998;DHT22;4044;49.814;7.828;2023-05-14T08:41:04;17.40;92.20
7998;DHT22;4044;49.814;7.828;2023-05-14T08:46:23;17.50;91.00
7998;DHT22;4044;49.814;7.828;2023-05-14T08:51:53;17.20;91.50
7998;DHT22;4044;49.814;7.828;2023-05-14T08:54:20;17.30;91.80
7998;DHT22;4044;49.814;7.828;2023-05-14T08:56:48;17.30;90.90
7998;DHT22;4044;49.814;7.828;2023-05-14T08:59:15;17.30;91.30
7998;DHT22;4044;49.814;7.828;2023-05-14T09:01:45;17.40;91.20
7998;DHT22;4044;49.814;7.828;2023-05-14T09:04:13;17.40;90.80
7998;DHT22;4044;49.814;7.828;2023-05-14T09:06:41;17.50;88.80
7998;DHT22;4044;49.814;7.828;2023-05-14T09:09:07;17.60;89.00
7998;DHT22;4044;49.814;7.828;2023-05-14T09:11:44;17.90;90.30
7998;DHT22;4044;49.814;7.828;2023-05-14T09:14:10;18.40;90.20
7998;DHT22;4044;49.814;7.828;2023-05-14T09:16:36;18.80;90.50
7998;DHT22;4044;49.814;7.828;2023-05-14T09:19:03;19.10;89.10
7998;DHT22;4044;49.814;7.828;2023-05-14T09:21:29;19.40;88.60
7998;DHT22;4044;49.814;7.828;2023-05-14T09:23:56;19.50;88.50
7998;DHT22;4044;49.814;7.828;2023-05-14T09:26:26;19.40;87.30
7998;DHT22;4044;49.814;7.828;2023-05-14T09:28:58;19.30;88.10
7998;DHT22;4044;49.814;7.828;2023-05-14T09:31:31;19.00;85.80
7998;DHT22;4044;49.814;7.828;2023-05-14T09:33:58;18.70;86.60
7998;DHT22;4044;49.814;7.828;2023-05-14T09:36:24;18.50;86.40
7998;DHT22;4044;49.814;7.828;2023-05-14T09:38:57;18.30;84.70
7998;DHT22;4044;49.814;7.828;2023-05-14T09:41:23;18.20;86.40
7998;DHT22;4044;49.814;7.828;2023-05-14T09:43:51;18.30;84.70
7998;DHT22;4044;49.814;7.828;2023-05-14T09:46:17;18.40;84.70
7998;DHT22;4044;49.814;7.828;2023-05-14T09:48:44;18.40;83.90
7998;DHT22;4044;49.814;7.828;2023-05-14T09:51:10;18.50;86.50
7998;DHT22;4044;49.814;7.828;2023-05-14T09:53:36;18.70;86.40
7998;DHT22;4044;49.814;7.828;2023-05-14T09:56:02;18.80;85.00
7998;DHT22;4044;49.814;7.828;2023-05-14T09:58:27;19.10;85.50
7998;DHT22;4044;49.814;7.828;2023-05-14T10:00:56;19.50;85.30
7998;DHT22;4044;49.814;7.828;2023-05-14T10:03:24;19.90;84.10
7998;DHT22;4044;49.814;7.828;2023-05-14T10:05:50;20.30;81.70
7998;DHT22;4044;49.814;7.828;2023-05-14T10:10:50;21.60;79.40
7998;DHT22;4044;49.814;7.828;2023-05-14T10:13:19;22.00;78.60
7998;DHT22;4044;49.814;7.828;2023-05-14T10:15:49;22.30;77.00
7998;DHT22;4044;49.814;7.828;2023-05-14T10:18:18;22.60;76.30
7998;DHT22;4044;49.814;7.828;2023-05-14T10:20:47;22.70;74.50
7998;DHT22;4044;49.814;7.828;2023-05-14T10:23:13;22.80;77.30
7998;DHT22;4044;49.814;7.828;2023-05-14T10:25:39;22.90;74.40
7998;DHT22;4044;49.814;7.828;2023-05-14T10:28:05;22.70;75.10
7998;DHT22;4044;49.814;7.828;2023-05-14T10:30:31;22.60;75.30
7998;DHT22;4044;49.814;7.828;2023-05-14T10:33:12;22.60;74.70
7998;DHT22;4044;49.814;7.828;2023-05-14T10:36:02;22.80;74.80
7998;DHT22;4044;49.814;7.828;2023-05-14T10:38:28;22.70;73.20
7998;DHT22;4044;49.814;7.828;2023-05-14T10:41:05;22.70;74.90
7998;DHT22;4044;49.814;7.828;2023-05-14T10:43:38;22.70;73.90
7998;DHT22;4044;49.814;7.828;2023-05-14T10:46:05;22.80;72.40
7998;DHT22;4044;49.814;7.828;2023-05-14T10:48:32;22.90;73.10
7998;DHT22;4044;49.814;7.828;2023-05-14T10:50:58;22.80;72.30
7998;DHT22;4044;49.814;7.828;2023-05-14T10:53:32;22.80;74.40
7998;DHT22;4044;49.814;7.828;2023-05-14T10:56:12;22.70;70.90
7998;DHT22;4044;49.814;7.828;2023-05-14T10:58:42;22.70;72.80
7998;DHT22;4044;49.814;7.828;2023-05-14T11:01:10;22.80;74.30
7998;DHT22;4044;49.814;7.828;2023-05-14T11:03:41;22.90;74.10
7998;DHT22;4044;49.814;7.828;2023-05-14T11:06:08;23.40;71.10
7998;DHT22;4044;49.814;7.828;2023-05-14T11:08:34;23.90;72.20
7998;DHT22;4044;49.814;7.828;2023-05-14T11:11:01;24.30;70.70
7998;DHT22;4044;49.814;7.828;2023-05-14T11:13:27;24.30;71.50
7998;DHT22;4044;49.814;7.828;2023-05-14T11:15:52;24.40;70.70
7998;DHT22;4044;49.814;7.828;2023-05-14T11:18:27;24.30;70.40
7998;DHT22;4044;49.814;7.828;2023-05-14T11:20:59;24.30;70.60
7998;DHT22;4044;49.814;7.828;2023-05-14T11:23:26;24.00;70.20
7998;DHT22;4044;49.814;7.828;2023-05-14T11:25:52;24.10;70.10
7998;DHT22;4044;49.814;7.828;2023-05-14T11:28:25;24.30;71.20
7998;DHT22;4044;49.814;7.828;2023-05-14T11:30:52;24.30;70.60
7998;DHT22;4044;49.814;7.828;2023-05-14T11:33:19;24.20;71.20
7998;DHT22;4044;49.814;7.828;2023-05-14T11:35:47;24.10;70.90
7998;DHT22;4044;49.814;7.828;2023-05-14T11:38:18;24.50;72.30
7998;DHT22;4044;49.814;7.828;2023-05-14T11:40:54;24.90;71.50
7998;DHT22;4044;49.814;7.828;2023-05-14T11:43:20;25.00;66.10
7998;DHT22;4044;49.814;7.828;2023-05-14T11:45:52;25.10;69.70
7998;DHT22;4044;49.814;7.828;2023-05-14T11:48:18;25.20;69.60
7998;DHT22;4044;49.814;7.828;2023-05-14T11:50:46;24.60;68.10
7998;DHT22;4044;49.814;7.828;2023-05-14T11:53:34;25.20;70.70
7998;DHT22;4044;49.814;7.828;2023-05-14T11:56:01;26.60;68.20
7998;DHT22;4044;49.814;7.828;2023-05-14T11:58:31;26.90;66.70
7998;DHT22;4044;49.814;7.828;2023-05-14T12:00:57;27.00;66.40
7998;DHT22;4044;49.814;7.828;2023-05-14T12:03:22;27.00;65.70
7998;DHT22;4044;49.814;7.828;2023-05-14T12:05:58;26.80;65.10
7998;DHT22;4044;49.814;7.828;2023-05-14T12:08:28;27.00;63.60
7998;DHT22;4044;49.814;7.828;2023-05-14T12:10:54;27.10;63.40
7998;DHT22;4044;49.814;7.828;2023-05-14T12:13:20;27.00;64.30
7998;DHT22;4044;49.814;7.828;2023-05-14T12:15:54;28.00;63.20
7998;DHT22;4044;49.814;7.828;2023-05-14T12:18:20;27.70;64.40
7998;DHT22;4044;49.814;7.828;2023-05-14T12:20:47;27.60;64.50
7998;DHT22;4044;49.814;7.828;2023-05-14T12:23:13;28.90;64.80
7998;DHT22;4044;49.814;7.828;2023-05-14T12:25:39;30.30;61.40
7998;DHT22;4044;49.814;7.828;2023-05-14T12:28:14;30.80;61.20
7998;DHT22;4044;49.814;7.828;2023-05-14T12:30:40;31.00;57.20
7998;DHT22;4044;49.814;7.828;2023-05-14T12:33:05;31.20;59.60
7998;DHT22;4044;49.814;7.828;2023-05-14T12:35:31;32.10;56.70
7998;DHT22;4044;49.814;7.828;2023-05-14T12:37:57;31.60;55.80
7998;DHT22;4044;49.814;7.828;2023-05-14T12:40:22;32.80;56.10
7998;DHT22;4044;49.814;7.828;2023-05-14T12:42:48;33.40;55.90
7998;DHT22;4044;49.814;7.828;2023-05-14T12:45:13;32.50;56.40
7998;DHT22;4044;49.814;7.828;2023-05-14T12:47:39;31.40;56.10
7998;DHT22;4044;49.814;7.828;2023-05-14T12:50:05;30.30;56.90
7998;DHT22;4044;49.814;7.828;2023-05-14T12:52:30;29.70;58.20
7998;DHT22;4044;49.814;7.828;2023-05-14T12:54:56;31.10;57.50
7998;DHT22;4044;49.814;7.828;2023-05-14T12:57:21;32.10;56.50
7998;DHT22;4044;49.814;7.828;2023-05-14T12:59:47;33.30;54.60
7998;DHT22;4044;49.814;7.828;2023-05-14T13:02:12;33.20;53.70
7998;DHT22;4044;49.814;7.828;2023-05-14T13:04:39;32.10;54.70
7998;DHT22;4044;49.814;7.828;2023-05-14T13:07:05;30.40;55.20
7998;DHT22;4044;49.814;7.828;2023-05-14T13:09:33;29.10;56.80
7998;DHT22;4044;49.814;7.828;2023-05-14T13:11:58;28.40;58.40
7998;DHT22;4044;49.814;7.828;2023-05-14T13:14:24;27.20;59.70
7998;DHT22;4044;49.814;7.828;2023-05-14T13:16:49;26.00;61.30
7998;DHT22;4044;49.814;7.828;2023-05-14T13:19:15;25.30;63.20
7998;DHT22;4044;49.814;7.828;2023-05-14T13:21:40;24.70;63.50
7998;DHT22;4044;49.814;7.828;2023-05-14T13:24:06;24.40;63.80
7998;DHT22;4044;49.814;7.828;2023-05-14T13:26:34;24.50;65.40
7998;DHT22;4044;49.814;7.828;2023-05-14T13:29:00;24.30;64.60
7998;DHT22;4044;49.814;7.828;2023-05-14T13:31:26;24.30;65.80
7998;DHT22;4044;49.814;7.828;2023-05-14T13:33:51;24.70;66.10
7998;DHT22;4044;49.814;7.828;2023-05-14T13:36:17;25.10;65.80
7998;DHT22;4044;49.814;7.828;2023-05-14T13:38:43;26.10;65.80
7998;DHT22;4044;49.814;7.828;2023-05-14T13:41:10;27.40;63.60
7998;DHT22;4044;49.814;7.828;2023-05-14T13:43:35;27.80;61.30
7998;DHT22;4044;49.814;7.828;2023-05-14T13:46:02;27.30;60.20
7998;DHT22;4044;49.814;7.828;2023-05-14T13:48:28;26.90;61.50
7998;DHT22;4044;49.814;7.828;2023-05-14T13:50:55;26.10;62.70
7998;DHT22;4044;49.814;7.828;2023-05-14T13:53:22;26.00;62.70
7998;DHT22;4044;49.814;7.828;2023-05-14T13:55:48;26.90;59.80
7998;DHT22;4044;49.814;7.828;2023-05-14T13:58:15;27.00;61.10
7998;DHT22;4044;49.814;7.828;2023-05-14T14:00:40;27.50;62.90
7998;DHT22;4044;49.814;7.828;2023-05-14T14:03:07;27.90;60.70
7998;DHT22;4044;49.814;7.828;2023-05-14T14:05:34;28.30;61.80
7998;DHT22;4044;49.814;7.828;2023-05-14T14:08:00;28.30;58.50
7998;DHT22;4044;49.814;7.828;2023-05-14T14:10:25;29.60;59.20
7998;DHT22;4044;49.814;7.828;2023-05-14T14:12:51;30.70;58.30
7998;DHT22;4044;49.814;7.828;2023-05-14T14:15:16;31.00;57.50
7998;DHT22;4044;49.814;7.828;2023-05-14T14:17:42;30.70;55.60
7998;DHT22;4044;49.814;7.828;2023-05-14T14:20:08;30.50;55.80
7998;DHT22;4044;49.814;7.828;2023-05-14T14:22:34;29.90;55.80
7998;DHT22;4044;49.814;7.828;2023-05-14T14:25:00;29.40;57.00
7998;DHT22;4044;49.814;7.828;2023-05-14T14:27:26;29.10;56.10
7998;DHT22;4044;49.814;7.828;2023-05-14T14:29:52;29.50;59.00
7998;DHT22;4044;49.814;7.828;2023-05-14T14:32:17;30.40;56.50
7998;DHT22;4044;49.814;7.828;2023-05-14T14:34:43;30.90;54.60
7998;DHT22;4044;49.814;7.828;2023-05-14T14:37:08;31.20;53.60
7998;DHT22;4044;49.814;7.828;2023-05-14T14:39:34;30.70;55.10
7998;DHT22;4044;49.814;7.828;2023-05-14T14:42:00;31.60;59.30
7998;DHT22;4044;49.814;7.828;2023-05-14T14:44:26;33.00;54.90
7998;DHT22;4044;49.814;7.828;2023-05-14T14:46:51;34.00;52.10
7998;DHT22;4044;49.814;7.828;2023-05-14T14:49:17;34.80;51.60
7998;DHT22;4044;49.814;7.828;2023-05-14T14:51:42;34.80;51.70
7998;DHT22;4044;49.814;7.828;2023-05-14T14:54:08;35.40;49.60
7998;DHT22;4044;49.814;7.828;2023-05-14T14:56:33;35.70;52.00
7998;DHT22;4044;49.814;7.828;2023-05-14T14:59:00;36.50;49.80
7998;DHT22;4044;49.814;7.828;2023-05-14T15:01:25;36.40;47.70
7998;DHT22;4044;49.814;7.828;2023-05-14T15:03:51;36.10;49.90
7998;DHT22;4044;49.814;7.828;2023-05-14T15:06:16;35.40;48.40
7998;DHT22;4044;49.814;7.828;2023-05-14T15:08:42;34.30;50.10
7998;DHT22;4044;49.814;7.828;2023-05-14T15:11:07;33.60;50.20
7998;DHT22;4044;49.814;7.828;2023-05-14T15:13:33;32.70;50.50
7998;DHT22;4044;49.814;7.828;2023-05-14T15:15:59;32.40;51.60
7998;DHT22;4044;49.814;7.828;2023-05-14T15:18:24;32.40;51.80
7998;DHT22;4044;49.814;7.828;2023-05-14T15:20:50;32.70;51.80
7998;DHT22;4044;49.814;7.828;2023-05-14T15:23:17;33.50;50.70
7998;DHT22;4044;49.814;7.828;2023-05-14T15:25:43;34.20;52.50
7998;DHT22;4044;49.814;7.828;2023-05-14T15:28:08;33.50;49.40
7998;DHT22;4044;49.814;7.828;2023-05-14T15:30:34;32.90;50.10
7998;DHT22;4044;49.814;7.828;2023-05-14T15:33:00;32.90;49.30
7998;DHT22;4044;49.814;7.828;2023-05-14T15:35:25;33.10;52.10
7998;DHT22;4044;49.814;7.828;2023-05-14T15:37:54;33.20;51.40
7998;DHT22;4044;49.814;7.828;2023-05-14T15:40:20;32.40;52.10
7998;DHT22;4044;49.814;7.828;2023-05-14T15:42:45;32.20;52.50
7998;DHT22;4044;49.814;7.828;2023-05-14T15:45:11;32.40;50.00
7998;DHT22;4044;49.814;7.828;2023-05-14T15:47:37;32.40;51.30
7998;DHT22;4044;49.814;7.828;2023-05-14T15:50:03;33.20;51.10
7998;DHT22;4044;49.814;7.828;2023-05-14T15:52:29;33.50;49.50
7998;DHT22;4044;49.814;7.828;2023-05-14T15:54:55;33.80;48.70
7998;DHT22;4044;49.814;7.828;2023-05-14T15:57:22;34.10;49.40
7998;DHT22;4044;49.814;7.828;2023-05-14T15:59:47;34.60;49.20
7998;DHT22;4044;49.814;7.828;2023-05-14T16:02:14;34.60;48.50
7998;DHT22;4044;49.814;7.828;2023-05-14T16:04:40;34.90;47.30
7998;DHT22;4044;49.814;7.828;2023-05-14T16:07:06;35.30;48.70
7998;DHT22;4044;49.814;7.828;2023-05-14T16:09:35;35.10;46.20
7998;DHT22;4044;49.814;7.828;2023-05-14T16:12:00;34.70;50.00
7998;DHT22;4044;49.814;7.828;2023-05-14T16:14:26;34.00;48.10
7998;DHT22;4044;49.814;7.828;2023-05-14T16:16:52;34.10;49.20
7998;DHT22;4044;49.814;7.828;2023-05-14T16:19:18;34.20;47.80